createdAt,value
2023-01-30T00:00:45.601Z,18.77
2023-01-30T00:01:47.679Z,14.82
2023-01-30T00:02:49.411Z,12.23
2023-01-30T00:03:51.178Z,15.48
2023-01-30T00:04:52.911Z,14.98
2023-01-30T00:05:54.888Z,15.82
2023-01-30T00:06:56.647Z,17.70
2023-01-30T00:07:58.367Z,16.02
2023-01-30T00:09:00.318Z,15.30
2023-01-30T00:10:02.153Z,13.85
2023-01-30T00:11:08.919Z,17.50
2023-01-30T00:12:10.660Z,19.33
2023-01-30T00:13:14.727Z,14.98
2023-01-30T00:14:16.469Z,14.25
2023-01-30T00:15:18.363Z,16.10
2023-01-30T00:16:20.129Z,17.10
2023-01-30T00:17:21.929Z,15.82
2023-01-30T00:18:23.691Z,14.80
2023-01-30T00:19:25.419Z,13.80
2023-01-30T00:20:27.144Z,16.08
2023-01-30T00:21:29.004Z,13.98
2023-01-30T00:22:31.160Z,15.25
2023-01-30T00:23:34.482Z,13.45
2023-01-30T00:24:36.272Z,16.08
2023-01-30T00:25:38.138Z,14.45
2023-01-30T00:26:40.014Z,14.27
2023-01-30T00:27:41.824Z,15.82
2023-01-30T00:28:43.566Z,14.75
2023-01-30T00:29:54.384Z,16.65
2023-01-30T00:31:03.247Z,16.25
2023-01-30T00:32:05.113Z,15.93
2023-01-30T00:33:06.802Z,16.52
2023-01-30T00:34:08.636Z,14.05
2023-01-30T00:35:10.423Z,14.98
2023-01-30T00:36:13.575Z,17.25
2023-01-30T00:37:15.267Z,15.40
2023-01-30T00:38:17.805Z,16.27
2023-01-30T00:39:19.504Z,15.35
2023-01-30T00:40:21.202Z,17.23
2023-01-30T00:41:22.904Z,15.05
2023-01-30T00:42:43.331Z,15.38
2023-01-30T00:44:03.836Z,14.20
2023-01-30T00:45:24.360Z,17.45
2023-01-30T00:46:52.271Z,16.73
2023-01-30T00:47:54.029Z,15.63
2023-01-30T00:48:55.758Z,17.35
2023-01-30T00:49:57.445Z,16.73
2023-01-30T00:50:59.224Z,16.65
2023-01-30T00:52:01.325Z,15.90
2023-01-30T00:53:03.011Z,14.65
2023-01-30T00:54:04.740Z,17.70
2023-01-30T00:55:07.003Z,17.35
2023-01-30T00:56:08.735Z,17.90
2023-01-30T00:57:10.441Z,19.20
2023-01-30T00:58:13.588Z,18.63
2023-01-30T00:59:15.366Z,14.93
2023-01-30T01:00:18.168Z,17.80
2023-01-30T01:01:19.931Z,16.33
2023-01-30T01:02:21.776Z,17.02
2023-01-30T01:03:23.712Z,17.27
2023-01-30T01:04:25.623Z,15.50
2023-01-30T01:05:28.644Z,13.75
2023-01-30T01:06:30.550Z,18.50
2023-01-30T01:07:32.240Z,15.68
2023-01-30T01:08:33.970Z,16.00
2023-01-30T01:09:35.706Z,14.88
2023-01-30T01:10:37.931Z,15.25
2023-01-30T01:11:39.767Z,17.02
2023-01-30T01:12:41.477Z,17.98
2023-01-30T01:13:43.219Z,14.38
2023-01-30T01:14:44.961Z,14.40
2023-01-30T01:15:46.957Z,15.13
2023-01-30T01:16:48.765Z,19.00
2023-01-30T01:17:50.836Z,13.70
2023-01-30T01:18:52.693Z,16.25
2023-01-30T01:19:54.422Z,12.05
2023-01-30T01:20:56.119Z,15.85
2023-01-30T01:21:57.804Z,14.80
2023-01-30T01:22:59.492Z,12.68
2023-01-30T01:24:01.267Z,14.73
2023-01-30T01:25:03.443Z,13.38
2023-01-30T01:26:05.416Z,13.10
2023-01-30T01:27:07.116Z,12.50
2023-01-30T01:28:09.238Z,12.55
2023-01-30T01:29:15.336Z,13.73
2023-01-30T01:30:17.732Z,16.23
2023-01-30T01:31:19.575Z,15.13
2023-01-30T01:32:22.235Z,15.10
2023-01-30T01:33:28.014Z,12.82
2023-01-30T01:34:29.808Z,13.57
2023-01-30T01:35:31.521Z,16.55
2023-01-30T01:36:52.739Z,13.73
2023-01-30T01:37:55.487Z,10.90
2023-01-30T01:38:57.224Z,18.70
2023-01-30T01:40:17.375Z,12.90
2023-01-30T01:41:19.102Z,15.35
2023-01-30T01:42:20.791Z,12.80
2023-01-30T01:43:25.349Z,13.00
2023-01-30T01:44:27.070Z,12.77
2023-01-30T01:45:29.673Z,13.55
2023-01-30T01:46:46.014Z,15.77
2023-01-30T01:47:56.822Z,16.88
2023-01-30T01:49:01.921Z,15.13
2023-01-30T01:50:05.570Z,14.43
2023-01-30T01:51:16.350Z,16.95
2023-01-30T01:52:18.180Z,16.83
2023-01-30T01:53:24.884Z,14.00
2023-01-30T01:54:40.400Z,16.75
2023-01-30T01:55:45.074Z,16.00
2023-01-30T01:56:49.250Z,16.70
2023-01-30T01:57:56.598Z,18.08
2023-01-30T01:59:10.567Z,16.05
2023-01-30T02:00:15.607Z,15.00
2023-01-30T02:01:17.363Z,15.82
2023-01-30T02:02:20.230Z,17.25
2023-01-30T02:03:25.388Z,14.85
2023-01-30T02:04:47.543Z,14.45
2023-01-30T02:05:53.138Z,15.10
2023-01-30T02:06:54.838Z,16.40
2023-01-30T02:08:05.746Z,16.90
2023-01-30T02:09:10.310Z,17.05
2023-01-30T02:10:22.442Z,17.90
2023-01-30T02:11:34.956Z,20.15
2023-01-30T02:12:38.311Z,17.95
2023-01-30T02:13:40.497Z,15.90
2023-01-30T02:14:44.073Z,18.10
2023-01-30T02:15:46.250Z,17.30
2023-01-30T02:16:48.030Z,19.55
2023-01-30T02:17:49.887Z,17.20
2023-01-30T02:18:52.679Z,18.27
2023-01-30T02:20:33.031Z,17.77
2023-01-30T02:22:02.170Z,17.88
2023-01-30T02:23:38.502Z,18.65
2023-01-30T02:25:18.529Z,19.05
2023-01-30T02:26:36.795Z,18.85
2023-01-30T02:28:00.123Z,18.75
2023-01-30T02:29:29.386Z,17.98
2023-01-30T02:30:56.764Z,20.40
2023-01-30T02:32:13.778Z,21.63
2023-01-30T02:33:27.541Z,18.50
2023-01-30T02:35:04.215Z,22.67
2023-01-30T02:36:27.632Z,20.52
2023-01-30T02:37:47.382Z,19.77
2023-01-30T02:39:07.372Z,20.63
2023-01-30T02:40:12.082Z,19.73
2023-01-30T02:41:57.544Z,21.10
2023-01-30T02:43:20.827Z,19.13
2023-01-30T02:44:30.491Z,19.98
2023-01-30T02:45:57.357Z,18.88
2023-01-30T02:47:15.636Z,20.58
2023-01-30T02:48:25.233Z,21.45
2023-01-30T02:49:36.464Z,20.17
2023-01-30T02:50:47.566Z,23.10
2023-01-30T02:51:50.807Z,22.13
2023-01-30T02:52:53.239Z,20.70
2023-01-30T02:53:55.482Z,22.08
2023-01-30T02:54:57.183Z,18.73
2023-01-30T02:55:58.920Z,22.20
2023-01-30T02:57:00.823Z,19.80
2023-01-30T02:58:04.787Z,22.15
2023-01-30T02:59:07.122Z,20.70
2023-01-30T03:00:10.142Z,20.27
2023-01-30T03:01:14.723Z,19.70
2023-01-30T03:02:22.371Z,22.40
2023-01-30T03:03:29.935Z,22.67
2023-01-30T03:04:50.138Z,24.50
2023-01-30T03:06:16.245Z,19.40
2023-01-30T03:07:27.956Z,21.05
2023-01-30T03:08:55.742Z,19.73
2023-01-30T03:10:09.156Z,21.48
2023-01-30T03:11:11.578Z,24.45
2023-01-30T03:12:25.214Z,22.63
2023-01-30T03:13:38.181Z,21.05
2023-01-30T03:14:47.846Z,21.88
2023-01-30T03:16:18.591Z,21.60
2023-01-30T03:17:23.827Z,24.33
2023-01-30T03:18:25.743Z,23.25
2023-01-30T03:19:29.905Z,21.02
2023-01-30T03:20:36.709Z,21.30
2023-01-30T03:21:45.327Z,22.25
2023-01-30T03:22:47.639Z,23.58
2023-01-30T03:23:49.365Z,22.98
2023-01-30T03:24:53.661Z,20.27
2023-01-30T03:25:55.415Z,22.55
2023-01-30T03:27:04.015Z,25.42
2023-01-30T03:28:07.185Z,20.83
2023-01-30T03:29:08.937Z,24.05
2023-01-30T03:30:11.345Z,21.15
2023-01-30T03:31:13.159Z,23.17
2023-01-30T03:32:14.885Z,21.88
2023-01-30T03:33:16.591Z,23.13
2023-01-30T03:34:18.306Z,23.98
2023-01-30T03:35:20.355Z,23.02
2023-01-30T03:36:22.167Z,22.65
2023-01-30T03:37:23.933Z,23.10
2023-01-30T03:38:25.748Z,24.48
2023-01-30T03:39:27.620Z,23.77
2023-01-30T03:40:29.703Z,23.50
2023-01-30T03:41:31.793Z,26.10
2023-01-30T03:42:33.537Z,22.63
2023-01-30T03:43:35.305Z,22.42
2023-01-30T03:44:37.068Z,23.17
2023-01-30T03:45:38.797Z,22.80
2023-01-30T03:46:40.476Z,23.88
2023-01-30T03:47:42.181Z,24.10
2023-01-30T03:48:43.938Z,28.17
2023-01-30T03:49:45.653Z,26.70
2023-01-30T03:50:47.756Z,23.05
2023-01-30T03:51:49.454Z,24.08
2023-01-30T03:52:51.158Z,23.55
2023-01-30T03:53:52.927Z,22.50
2023-01-30T03:54:54.658Z,20.10
2023-01-30T03:55:56.368Z,23.58
2023-01-30T03:56:58.116Z,21.33
2023-01-30T03:57:59.827Z,21.85
2023-01-30T03:59:01.585Z,19.20
2023-01-30T04:00:04.944Z,21.77
2023-01-30T04:01:06.819Z,21.23
2023-01-30T04:02:08.872Z,20.95
2023-01-30T04:03:10.658Z,19.75
2023-01-30T04:04:12.361Z,22.58
2023-01-30T04:05:14.207Z,23.15
2023-01-30T04:06:15.957Z,21.30
2023-01-30T04:07:17.931Z,23.27
2023-01-30T04:08:19.657Z,22.77
2023-01-30T04:09:21.356Z,21.05
2023-01-30T04:10:23.089Z,22.17
2023-01-30T04:11:24.791Z,22.48
2023-01-30T04:12:26.498Z,20.80
2023-01-30T04:13:28.191Z,21.85
2023-01-30T04:14:29.912Z,22.17
2023-01-30T04:15:31.641Z,22.85
2023-01-30T04:16:33.378Z,24.35
2023-01-30T04:17:35.079Z,22.33
2023-01-30T04:18:36.786Z,23.80
2023-01-30T04:19:38.575Z,23.80
2023-01-30T04:20:40.320Z,20.58
2023-01-30T04:21:42.088Z,22.83
2023-01-30T04:22:43.840Z,21.02
2023-01-30T04:23:45.752Z,22.00
2023-01-30T04:24:47.474Z,22.73
2023-01-30T04:25:49.194Z,25.77
2023-01-30T04:26:50.911Z,26.90
2023-01-30T04:27:52.688Z,20.92
2023-01-30T04:28:54.420Z,21.05
2023-01-30T04:29:56.119Z,37.72
2023-01-30T04:30:57.912Z,24.15
2023-01-30T04:31:59.707Z,20.17
2023-01-30T04:33:01.494Z,22.35
2023-01-30T04:34:03.184Z,22.85
2023-01-30T04:35:05.422Z,24.45
2023-01-30T04:36:09.511Z,21.95
2023-01-30T04:37:12.544Z,23.63
2023-01-30T04:38:14.245Z,22.88
2023-01-30T04:39:16.015Z,22.42
2023-01-30T04:40:17.944Z,21.80
2023-01-30T04:41:19.739Z,21.27
2023-01-30T04:42:21.524Z,24.23
2023-01-30T04:43:25.218Z,23.00
2023-01-30T04:44:27.043Z,20.95
2023-01-30T04:45:29.352Z,19.70
2023-01-30T04:46:31.938Z,21.08
2023-01-30T04:47:33.691Z,23.65
2023-01-30T04:48:35.442Z,21.13
2023-01-30T04:49:37.154Z,21.33
2023-01-30T04:50:40.215Z,21.35
2023-01-30T04:51:41.989Z,21.13
2023-01-30T04:52:43.707Z,23.80
2023-01-30T04:53:45.442Z,20.45
2023-01-30T04:54:47.140Z,20.17
2023-01-30T04:55:49.286Z,22.77
2023-01-30T04:56:51.020Z,22.15
2023-01-30T04:57:52.745Z,25.30
2023-01-30T04:58:54.468Z,22.42
2023-01-30T04:59:56.166Z,22.77
2023-01-30T05:01:16.330Z,18.88
2023-01-30T05:02:20.170Z,23.42
2023-01-30T05:03:22.655Z,20.60
2023-01-30T05:04:24.478Z,20.13
2023-01-30T05:05:27.494Z,21.42
2023-01-30T05:06:30.575Z,19.20
2023-01-30T05:07:32.302Z,21.77
2023-01-30T05:08:34.038Z,22.67
2023-01-30T05:09:35.758Z,21.33
2023-01-30T05:10:37.499Z,19.80
2023-01-30T05:11:39.245Z,23.20
2023-01-30T05:12:40.965Z,21.25
2023-01-30T05:13:44.578Z,20.27
2023-01-30T05:14:47.027Z,21.63
2023-01-30T05:15:48.715Z,22.23
2023-01-30T05:16:50.464Z,22.80
2023-01-30T05:17:52.168Z,24.67
2023-01-30T05:18:53.944Z,18.95
2023-01-30T05:19:55.724Z,20.70
2023-01-30T05:21:08.487Z,23.60
2023-01-30T05:22:10.262Z,27.58
2023-01-30T05:23:12.058Z,23.20
2023-01-30T05:24:13.812Z,22.75
2023-01-30T05:25:15.773Z,22.55
2023-01-30T05:26:17.628Z,22.05
2023-01-30T05:27:19.397Z,22.42
2023-01-30T05:28:21.098Z,25.85
2023-01-30T05:29:22.943Z,24.17
2023-01-30T05:30:24.684Z,23.02
2023-01-30T05:31:26.588Z,23.02
2023-01-30T05:32:30.608Z,21.95
2023-01-30T05:33:32.986Z,21.50
2023-01-30T05:34:34.733Z,23.35
2023-01-30T05:35:36.411Z,22.95
2023-01-30T05:36:38.345Z,19.83
2023-01-30T05:37:40.053Z,21.25
2023-01-30T05:38:43.896Z,21.15
2023-01-30T05:39:45.593Z,23.10
2023-01-30T05:40:47.276Z,20.35
2023-01-30T05:41:48.971Z,22.30
2023-01-30T05:42:50.663Z,21.27
2023-01-30T05:43:52.442Z,21.92
2023-01-30T05:44:54.189Z,23.48
2023-01-30T05:45:57.345Z,20.58
2023-01-30T05:46:59.117Z,26.08
2023-01-30T05:48:01.533Z,24.05
2023-01-30T05:49:04.447Z,22.70
2023-01-30T05:50:06.391Z,26.55
2023-01-30T05:51:16.777Z,26.10
2023-01-30T05:52:18.543Z,21.77
2023-01-30T05:53:22.461Z,20.52
2023-01-30T05:54:24.566Z,20.67
2023-01-30T05:55:26.330Z,21.48
2023-01-30T05:56:28.092Z,24.15
2023-01-30T05:57:29.804Z,21.63
2023-01-30T05:58:32.683Z,20.58
2023-01-30T05:59:34.436Z,20.77
2023-01-30T06:00:36.301Z,22.52
2023-01-30T06:01:38.218Z,20.08
2023-01-30T06:02:40.068Z,23.17
2023-01-30T06:03:42.357Z,23.33
2023-01-30T06:04:44.094Z,20.67
2023-01-30T06:05:46.371Z,24.17
2023-01-30T06:06:50.791Z,23.27
2023-01-30T06:07:52.509Z,25.20
2023-01-30T06:08:57.355Z,19.13
2023-01-30T06:09:59.152Z,23.85
2023-01-30T06:11:06.717Z,22.02
2023-01-30T06:12:09.192Z,24.63
2023-01-30T06:13:11.403Z,20.85
2023-01-30T06:14:13.291Z,22.40
2023-01-30T06:15:15.140Z,21.52
2023-01-30T06:16:18.551Z,19.13
2023-01-30T06:17:20.299Z,18.88
2023-01-30T06:18:22.177Z,19.45
2023-01-30T06:19:24.213Z,21.27
2023-01-30T06:20:25.978Z,18.55
2023-01-30T06:21:27.696Z,21.30
2023-01-30T06:22:29.445Z,21.65
2023-01-30T06:23:31.567Z,23.23
2023-01-30T06:24:33.295Z,18.85
2023-01-30T06:25:35.011Z,19.23
2023-01-30T06:26:36.747Z,20.63
2023-01-30T06:27:38.501Z,23.00
2023-01-30T06:28:40.440Z,21.42
2023-01-30T06:29:42.159Z,16.88
2023-01-30T06:30:44.255Z,23.10
2023-01-30T06:31:46.204Z,18.48
2023-01-30T06:32:51.060Z,17.55
2023-01-30T06:33:52.866Z,19.25
2023-01-30T06:34:54.571Z,21.08
2023-01-30T06:35:56.287Z,19.83
2023-01-30T06:36:58.024Z,18.15
2023-01-30T06:37:59.790Z,19.58
2023-01-30T06:39:01.539Z,21.00
2023-01-30T06:40:03.460Z,19.52
2023-01-30T06:41:05.448Z,20.88
2023-01-30T06:42:07.449Z,18.42
2023-01-30T06:43:09.255Z,21.63
2023-01-30T06:44:11.009Z,18.65
2023-01-30T06:45:14.903Z,20.33
2023-01-30T06:46:16.712Z,20.58
2023-01-30T06:47:18.451Z,21.48
2023-01-30T06:48:20.159Z,17.58
2023-01-30T06:49:21.850Z,15.32
2023-01-30T06:50:26.860Z,18.27
2023-01-30T06:51:28.652Z,17.83
2023-01-30T06:52:30.429Z,17.65
2023-01-30T06:53:32.560Z,17.98
2023-01-30T06:54:34.326Z,18.48
2023-01-30T06:55:36.517Z,18.05
2023-01-30T06:56:38.235Z,20.00
2023-01-30T06:57:39.950Z,16.60
2023-01-30T06:58:41.747Z,23.60
2023-01-30T06:59:43.488Z,18.55
2023-01-30T07:00:45.183Z,18.58
2023-01-30T07:01:46.994Z,21.00
2023-01-30T07:02:48.680Z,19.23
2023-01-30T07:03:50.390Z,20.15
2023-01-30T07:04:52.110Z,16.55
2023-01-30T07:05:54.111Z,17.95
2023-01-30T07:06:55.878Z,18.52
2023-01-30T07:07:57.931Z,19.30
2023-01-30T07:08:59.656Z,18.13
2023-01-30T07:10:08.305Z,19.50
2023-01-30T07:11:10.925Z,19.42
2023-01-30T07:12:12.653Z,18.55
2023-01-30T07:13:14.463Z,21.70
2023-01-30T07:14:16.156Z,19.35
2023-01-30T07:15:18.255Z,18.58
2023-01-30T07:16:20.274Z,21.48
2023-01-30T07:17:22.268Z,20.45
2023-01-30T07:18:24.046Z,21.33
2023-01-30T07:19:25.749Z,21.02
2023-01-30T07:20:30.178Z,18.67
2023-01-30T07:21:31.896Z,20.63
2023-01-30T07:22:33.655Z,22.15
2023-01-30T07:23:36.058Z,21.65
2023-01-30T07:24:38.656Z,19.02
2023-01-30T07:25:40.345Z,18.55
2023-01-30T07:26:42.555Z,22.80
2023-01-30T07:27:49.699Z,22.17
2023-01-30T07:28:51.467Z,24.20
2023-01-30T07:29:53.417Z,20.85
2023-01-30T07:30:55.192Z,21.75
2023-01-30T07:31:57.049Z,21.63
2023-01-30T07:33:00.256Z,20.17
2023-01-30T07:34:02.020Z,19.88
2023-01-30T07:35:05.912Z,17.88
2023-01-30T07:36:08.135Z,20.50
2023-01-30T07:37:10.379Z,18.25
2023-01-30T07:38:12.106Z,16.98
2023-01-30T07:39:13.827Z,20.05
2023-01-30T07:40:16.325Z,18.73
2023-01-30T07:41:18.045Z,17.17
2023-01-30T07:42:19.789Z,16.83
2023-01-30T07:43:21.526Z,19.35
2023-01-30T07:44:23.284Z,18.17
2023-01-30T07:45:25.593Z,22.08
2023-01-30T07:46:28.889Z,20.08
2023-01-30T07:47:31.178Z,21.73
2023-01-30T07:48:32.942Z,20.75
2023-01-30T07:49:34.685Z,21.70
2023-01-30T07:50:36.546Z,22.05
2023-01-30T07:51:38.262Z,22.30
2023-01-30T07:52:39.978Z,20.50
2023-01-30T07:53:41.934Z,23.23
2023-01-30T07:54:43.843Z,21.95
2023-01-30T07:55:45.811Z,19.13
2023-01-30T07:56:47.527Z,20.67
2023-01-30T07:57:49.253Z,21.60
2023-01-30T07:58:51.453Z,18.27
2023-01-30T07:59:53.220Z,22.55
2023-01-30T08:00:55.475Z,20.85
2023-01-30T08:01:58.735Z,19.67
2023-01-30T08:03:00.748Z,20.75
2023-01-30T08:04:02.465Z,21.70
2023-01-30T08:05:06.176Z,20.55
2023-01-30T08:06:08.147Z,22.55
2023-01-30T08:07:09.850Z,21.73
2023-01-30T08:08:11.556Z,21.58
2023-01-30T08:09:13.386Z,18.52
2023-01-30T08:10:15.607Z,19.73
2023-01-30T08:11:18.436Z,20.65
2023-01-30T08:12:20.145Z,22.33
2023-01-30T08:13:21.855Z,22.23
2023-01-30T08:14:23.650Z,18.88
2023-01-30T08:15:25.390Z,20.48
2023-01-30T08:16:27.171Z,19.50
2023-01-30T08:17:28.962Z,20.48
2023-01-30T08:18:32.067Z,18.55
2023-01-30T08:19:33.755Z,20.05
2023-01-30T08:20:36.354Z,19.50
2023-01-30T08:21:38.094Z,20.60
2023-01-30T08:22:39.831Z,20.13
2023-01-30T08:23:41.537Z,20.90
2023-01-30T08:24:43.642Z,20.98
2023-01-30T08:25:45.374Z,21.80
2023-01-30T08:26:49.984Z,22.90
2023-01-30T08:27:51.910Z,18.23
2023-01-30T08:28:55.955Z,22.95
2023-01-30T08:29:58.223Z,20.65
2023-01-30T08:31:00.088Z,18.13
2023-01-30T08:32:01.985Z,20.75
2023-01-30T08:33:03.775Z,19.48
2023-01-30T08:34:05.817Z,22.15
2023-01-30T08:35:08.272Z,21.17
2023-01-30T08:36:10.071Z,25.65
2023-01-30T08:37:11.971Z,21.45
2023-01-30T08:38:14.455Z,19.40
2023-01-30T08:39:16.204Z,20.65
2023-01-30T08:40:18.288Z,21.20
2023-01-30T08:41:20.150Z,24.80
2023-01-30T08:42:21.824Z,27.67
2023-01-30T08:43:24.125Z,26.45
2023-01-30T08:44:25.835Z,22.02
2023-01-30T08:45:28.109Z,21.23
2023-01-30T08:46:29.871Z,20.80
2023-01-30T08:47:31.982Z,21.38
2023-01-30T08:48:47.360Z,22.63
2023-01-30T08:49:52.954Z,21.70
2023-01-30T08:50:55.843Z,20.25
2023-01-30T08:51:57.560Z,21.20
2023-01-30T08:53:07.825Z,20.23
2023-01-30T08:54:09.587Z,18.17
2023-01-30T08:55:11.899Z,19.02
2023-01-30T08:56:13.650Z,21.85
2023-01-30T08:57:15.964Z,19.70
2023-01-30T08:58:17.746Z,21.20
2023-01-30T08:59:19.564Z,18.95
2023-01-30T09:00:21.907Z,21.13
2023-01-30T09:01:23.689Z,20.65
2023-01-30T09:02:25.451Z,20.00
2023-01-30T09:03:27.181Z,18.92
2023-01-30T09:04:32.463Z,21.00
2023-01-30T09:05:34.211Z,21.33
2023-01-30T09:06:36.045Z,18.75
2023-01-30T09:07:37.819Z,20.50
2023-01-30T09:08:39.593Z,22.65
2023-01-30T09:09:41.293Z,18.45
2023-01-30T09:10:43.004Z,20.17
2023-01-30T09:11:44.779Z,17.13
2023-01-30T09:12:46.735Z,19.52
2023-01-30T09:13:49.777Z,23.27
2023-01-30T09:14:53.903Z,18.17
2023-01-30T09:15:55.636Z,16.80
2023-01-30T09:16:57.356Z,16.88
2023-01-30T09:17:59.150Z,17.92
2023-01-30T09:19:01.163Z,17.42
2023-01-30T09:20:02.890Z,17.75
2023-01-30T09:21:05.760Z,17.05
2023-01-30T09:22:07.939Z,18.70
2023-01-30T09:23:09.661Z,19.30
2023-01-30T09:24:11.404Z,19.38
2023-01-30T09:25:13.362Z,18.13
2023-01-30T09:26:15.130Z,19.92
2023-01-30T09:27:16.907Z,16.70
2023-01-30T09:28:18.630Z,19.10
2023-01-30T09:29:20.411Z,17.85
2023-01-30T09:30:22.388Z,19.40
2023-01-30T09:31:24.226Z,15.65
2023-01-30T09:32:25.954Z,18.08
2023-01-30T09:33:28.056Z,13.88
2023-01-30T09:34:29.815Z,16.15
2023-01-30T09:35:31.549Z,15.90
2023-01-30T09:36:33.524Z,16.20
2023-01-30T09:37:35.427Z,17.15
2023-01-30T09:38:37.103Z,16.42
2023-01-30T09:39:38.821Z,17.08
2023-01-30T09:41:01.016Z,15.38
2023-01-30T09:42:05.550Z,16.63
2023-01-30T09:43:33.577Z,18.30
2023-01-30T09:45:29.708Z,16.73
2023-01-30T09:47:08.904Z,20.27
2023-01-30T09:48:20.606Z,15.93
2023-01-30T09:49:54.505Z,15.30
2023-01-30T09:51:08.073Z,15.20
2023-01-30T09:52:34.963Z,16.00
2023-01-30T09:54:00.121Z,14.82
2023-01-30T09:55:23.331Z,17.55
2023-01-30T09:56:25.287Z,13.43
2023-01-30T09:57:27.208Z,14.68
2023-01-30T09:58:57.260Z,18.55
2023-01-30T10:00:14.411Z,15.70
2023-01-30T10:01:27.605Z,15.20
2023-01-30T10:02:35.951Z,16.33
2023-01-30T10:03:50.260Z,19.88
2023-01-30T10:05:01.289Z,20.10
2023-01-30T10:06:15.165Z,26.63
2023-01-30T10:07:40.162Z,16.85
2023-01-30T10:08:56.982Z,18.10
2023-01-30T10:10:35.430Z,20.58
2023-01-30T10:11:48.033Z,22.23
2023-01-30T10:13:31.030Z,12.40
2023-01-30T10:15:03.054Z,16.00
2023-01-30T10:16:18.847Z,15.85
2023-01-30T10:17:43.086Z,19.60
2023-01-30T10:18:57.391Z,15.10
2023-01-30T10:20:26.756Z,12.57
2023-01-30T10:21:43.768Z,19.00
2023-01-30T10:22:45.875Z,17.27
2023-01-30T10:23:57.538Z,21.77
2023-01-30T10:25:19.436Z,22.67
2023-01-30T10:26:25.183Z,13.85
2023-01-30T10:27:30.798Z,11.60
2023-01-30T10:28:40.519Z,20.73
2023-01-30T10:29:49.160Z,16.23
2023-01-30T10:30:56.555Z,20.05
2023-01-30T10:32:29.145Z,19.65
2023-01-30T10:33:35.848Z,19.55
2023-01-30T10:34:40.709Z,13.70
2023-01-30T10:35:43.791Z,14.02
2023-01-30T10:36:54.474Z,11.95
2023-01-30T10:38:03.076Z,8.68
2023-01-30T10:39:18.649Z,12.95
2023-01-30T10:40:34.946Z,16.60
2023-01-30T10:41:52.125Z,11.77
2023-01-30T10:43:21.325Z,12.95
2023-01-30T10:44:23.888Z,10.68
2023-01-30T10:45:40.013Z,11.15
2023-01-30T10:46:56.893Z,12.73
2023-01-30T10:48:19.038Z,11.63
2023-01-30T10:49:36.715Z,12.75
2023-01-30T10:50:44.125Z,16.52
2023-01-30T10:51:55.029Z,14.90
2023-01-30T10:53:10.986Z,12.57
2023-01-30T10:54:24.391Z,12.52
2023-01-30T10:55:37.141Z,14.18
2023-01-30T10:57:08.153Z,10.43
2023-01-30T10:58:42.143Z,15.02
2023-01-30T11:00:08.405Z,12.63
2023-01-30T11:01:24.371Z,10.93
2023-01-30T11:02:33.843Z,11.65
2023-01-30T11:03:41.794Z,11.07
2023-01-30T11:04:52.112Z,11.45
2023-01-30T11:06:01.740Z,10.88
2023-01-30T11:07:04.245Z,11.48
2023-01-30T11:08:33.442Z,13.90
2023-01-30T11:09:43.349Z,14.93
2023-01-30T11:10:45.319Z,11.85
2023-01-30T11:11:53.599Z,12.48
2023-01-30T11:13:24.726Z,12.68
2023-01-30T11:14:27.121Z,12.68
2023-01-30T11:15:42.761Z,13.13
2023-01-30T11:16:47.563Z,18.08
2023-01-30T11:17:49.289Z,13.07
2023-01-30T11:19:18.668Z,14.45
2023-01-30T11:20:20.578Z,14.40
2023-01-30T11:21:42.419Z,11.15
2023-01-30T11:23:07.638Z,15.15
2023-01-30T11:24:19.625Z,11.43
2023-01-30T11:25:23.031Z,12.35
2023-01-30T11:26:45.573Z,13.95
2023-01-30T11:28:14.249Z,12.05
2023-01-30T11:29:32.792Z,14.80
2023-01-30T11:30:36.240Z,13.57
2023-01-30T11:31:41.933Z,13.13
2023-01-30T11:32:46.583Z,16.35
2023-01-30T11:34:11.793Z,13.25
2023-01-30T11:35:30.905Z,14.80
2023-01-30T11:36:34.950Z,14.77
2023-01-30T11:37:42.393Z,17.13
2023-01-30T11:39:12.717Z,13.75
2023-01-30T11:40:17.732Z,15.90
2023-01-30T11:41:23.348Z,13.57
2023-01-30T11:42:32.136Z,12.55
2023-01-30T11:43:35.265Z,13.93
2023-01-30T11:44:40.391Z,15.85
2023-01-30T11:45:49.021Z,10.45
2023-01-30T11:46:50.865Z,14.65
2023-01-30T11:48:04.851Z,15.05
2023-01-30T11:49:43.321Z,15.65
2023-01-30T11:50:49.617Z,12.10
2023-01-30T11:51:54.564Z,13.73
2023-01-30T11:53:01.935Z,17.98
2023-01-30T11:54:15.062Z,15.07
2023-01-30T11:55:20.065Z,15.55
2023-01-30T11:56:39.722Z,14.95
2023-01-30T11:57:45.095Z,16.58
2023-01-30T11:58:58.154Z,17.80
2023-01-30T12:00:01.343Z,18.77
2023-01-30T12:01:05.301Z,20.15
2023-01-30T12:02:31.927Z,11.85
2023-01-30T12:03:34.626Z,18.15
2023-01-30T12:04:40.426Z,17.95
2023-01-30T12:05:46.358Z,19.25
2023-01-30T12:07:05.869Z,21.80
2023-01-30T12:08:39.407Z,14.43
2023-01-30T12:09:43.026Z,18.98
2023-01-30T12:10:46.270Z,17.25
2023-01-30T12:11:47.962Z,16.85
2023-01-30T12:12:53.137Z,18.85
2023-01-30T12:14:28.883Z,18.00
2023-01-30T12:15:35.385Z,16.83
2023-01-30T12:17:03.029Z,17.55
2023-01-30T12:18:13.782Z,16.55
2023-01-30T12:19:30.456Z,14.80
2023-01-30T12:21:01.593Z,15.77
2023-01-30T12:22:28.559Z,14.40
2023-01-30T12:23:46.385Z,21.50
2023-01-30T12:25:01.517Z,14.65
2023-01-30T12:26:26.151Z,19.30
2023-01-30T12:27:54.171Z,14.45
2023-01-30T12:29:14.579Z,16.38
2023-01-30T12:30:25.140Z,16.65
2023-01-30T12:31:36.019Z,13.95
2023-01-30T12:32:37.786Z,21.05
2023-01-30T12:33:39.782Z,13.43
2023-01-30T12:34:45.556Z,16.63
2023-01-30T12:35:56.188Z,16.40
2023-01-30T12:37:25.385Z,14.45
2023-01-30T12:38:30.176Z,15.77
2023-01-30T12:39:56.421Z,17.35
2023-01-30T12:40:58.068Z,21.02
2023-01-30T12:42:25.950Z,22.25
2023-01-30T12:44:06.210Z,16.67
2023-01-30T12:45:27.160Z,15.93
2023-01-30T12:46:37.647Z,17.38
2023-01-30T12:47:54.101Z,15.88
2023-01-30T12:49:20.054Z,17.77
2023-01-30T12:50:33.868Z,16.98
2023-01-30T12:51:41.363Z,19.38
2023-01-30T12:53:04.898Z,16.13
2023-01-30T12:54:31.751Z,17.35
2023-01-30T12:55:41.443Z,21.58
2023-01-30T12:57:37.649Z,16.90
2023-01-30T12:58:45.882Z,17.13
2023-01-30T13:00:06.113Z,17.88
2023-01-30T13:01:25.166Z,13.85
2023-01-30T13:02:27.198Z,18.15
2023-01-30T13:03:42.136Z,15.10
2023-01-30T13:05:05.122Z,21.10
2023-01-30T13:06:40.069Z,17.98
2023-01-30T13:07:51.909Z,21.80
2023-01-30T13:09:11.988Z,19.05
2023-01-30T13:10:17.220Z,19.50
2023-01-30T13:11:34.091Z,17.38
2023-01-30T13:12:57.147Z,15.65
2023-01-30T13:14:16.708Z,16.42
2023-01-30T13:15:27.098Z,17.20
2023-01-30T13:16:36.708Z,18.02
2023-01-30T13:17:47.420Z,16.98
2023-01-30T13:18:55.716Z,20.27
2023-01-30T13:20:04.810Z,19.33
2023-01-30T13:21:36.806Z,17.90
2023-01-30T13:23:11.073Z,16.00
2023-01-30T13:24:25.529Z,23.67
2023-01-30T13:25:36.271Z,21.60
2023-01-30T13:26:41.228Z,18.95
2023-01-30T13:27:48.328Z,23.92
2023-01-30T13:29:00.330Z,24.27
2023-01-30T13:30:05.663Z,19.60
2023-01-30T13:31:12.763Z,15.43
2023-01-30T13:32:32.843Z,18.15
2023-01-30T13:33:38.826Z,23.85
2023-01-30T13:34:45.323Z,27.30
2023-01-30T13:35:52.728Z,20.25
2023-01-30T13:37:09.531Z,19.73
2023-01-30T13:38:19.363Z,15.50
2023-01-30T13:39:43.822Z,17.73
2023-01-30T13:40:48.728Z,18.75
2023-01-30T13:41:55.700Z,23.70
2023-01-30T13:43:30.660Z,21.35
2023-01-30T13:44:39.353Z,18.35
2023-01-30T13:45:46.317Z,20.23
2023-01-30T13:46:49.726Z,21.95
2023-01-30T13:48:19.336Z,20.00
2023-01-30T13:49:30.670Z,19.63
2023-01-30T13:51:57.209Z,18.35
2023-01-30T13:53:06.245Z,20.30
2023-01-30T13:54:33.853Z,19.52
2023-01-30T13:55:53.728Z,18.88
2023-01-30T13:57:27.677Z,22.88
2023-01-30T13:58:47.637Z,29.50
2023-01-30T13:59:55.431Z,22.50
2023-01-30T14:00:57.562Z,18.73
2023-01-30T14:01:59.333Z,18.88
2023-01-30T14:03:04.227Z,24.83
2023-01-30T14:04:45.295Z,21.77
2023-01-30T14:06:00.897Z,16.90
2023-01-30T14:07:14.998Z,17.75
2023-01-30T14:08:25.795Z,18.75
2023-01-30T14:09:33.318Z,16.67
2023-01-30T14:10:35.157Z,19.65
2023-01-30T14:11:58.316Z,21.08
2023-01-30T14:13:06.441Z,21.00
2023-01-30T14:14:25.427Z,20.90
2023-01-30T14:15:29.322Z,17.02
2023-01-30T14:16:43.552Z,18.75
2023-01-30T14:18:19.959Z,19.90
2023-01-30T14:19:24.559Z,28.48
2023-01-30T14:20:31.365Z,18.55
2023-01-30T14:21:34.492Z,18.85
2023-01-30T14:22:54.656Z,20.95
2023-01-30T14:24:01.703Z,18.95
2023-01-30T14:25:25.412Z,16.25
2023-01-30T14:26:56.091Z,14.85
2023-01-30T14:28:00.839Z,16.08